DFOF weather

Safane Airport
Safane, Mouhoun, Burkina Faso

Public forecast

Using degrees Celsius for public forecast. Weather courtesy of forecast.io.

Closest aviation weather report (METAR) to Safane Airport

Closest report is Bobo Dioulasso Airport, 89.9 nm (166.6 km) SW. Retrieved 2020/01/29 04:00 UTC (21 minutes ago):

DFOO 290400Z 02006KT 6000 NSC 19/M01 Q1014

Closest aviation forecast (TAF) to Safane Airport

Closest forecast is Bobo Dioulasso Airport, 89.9 nm (166.6 km) SW. Retrieved 2020-01-29 00:03 UTC (4 hours ago):

TAF DFOO 282300Z 2900/2924 04010KT 4000 DU NSC BECMG 2904/2906 2500 DU BECMG 2914/2916 4000 DU